Science Garden, Philippines

10:57 AM PHT on September 15, 2014 (GMT +0800)
Loyola Heights | Change Station
CLOSE
Current Station
Personal Weather Station
Location: Quezon City, NCR
Elevation: 187 ft
Nearby Weather Stations

Elev 187 ft 14.64 °N, 121.08 °E | Updated 12 minutes ago

Overcast
Overcast
82.3 °F
Feels Like 91 °F
N
14.0
Wind Variable Wind from SSE

Today
High -- | Low -- °F
--% Chance of Precip.
Yesterday
High -- | Low -- °F
Precip. -- in
5:44 AM 5:57 PM
Waning Gibbous, 60% visible
Pressure 29.68 in
Visibility 6.2 miles
Clouds Scattered Clouds 2300 ft
Overcast 10000 ft
Heat Index 91 °F
Dew Point 77 °F
Humidity 85%
Rainfall 0.44 in
Snow Depth Not available.
UV 10.2 out of 12
Pollen Not available.
Air Quality Not available.
Flu Activity Not available.
METAR RPLL 150200Z 19010KT 150V240 9999 SCT023 OVC100 29/23 Q1005 NOSIG RMK A2968

More Conditions Fewer Conditions

Pressure 29.68 in
Visibility 6.2 miles
Clouds Scattered Clouds 2300 ft
Overcast 10000 ft
Heat Index 91 °F
Dew Point 77 °F
Humidity 85%
Rainfall 0.44 in
Snow Depth Not available.
UV 10.2 out of 12
Pollen Not available.
Air Quality Not available.
Flu Activity Not available.
METAR RPLL 150200Z 19010KT 150V240 9999 SCT023 OVC100 29/23 Q1005 NOSIG RMK A2968

More Conditions Fewer Conditions

10-Day Weather Forecast

Almanac

Astronomy

Sep. 15, 2014 Rise Set
Actual Time 5:44 AM PHT 5:57 PM PHT
Civil Twilight 5:23 AM PHT 6:19 PM PHT
Nautical Twilight 4:58 AM PHT 6:44 PM PHT
Astronomical Twilight 4:33 AM PHT 7:09 PM PHT
Moon 11:05 PM PHT 11:19 AM PHT
Length of Visible Light 12h 55m
Length of Day
12h 13m
Tomorrow will be 0m 48s shorter.
Waning Gibbous, 60% of the Moon is Illuminated
Sep 14
Waning Gibbous
Sep 15
Last Quarter
Sep 24
New
Oct 1
First Quarter
Oct 8
Full

Yesterday's Extremes

Country Highs Country Lows

Community

WunderPhotos

Upload Photos

1,753,385 photos uploaded!

Nearby

Snow Depth

Not available.

Earthquake Activity

City Distance Mag. Time & Date
No recent earthquake activity has been reported nearby.
Minimum magnitude displayed is 2.5.

Coastal Water Temperatures

Place Temperature
No Stations Reporting

Nearby Weather Stations